createdAt,value
2023-05-15T00:00:01.525Z,11.8
2023-05-15T00:01:02.102Z,11.8
2023-05-15T00:02:01.795Z,11.7
2023-05-15T00:03:01.391Z,11.6
2023-05-15T00:04:01.920Z,11.6
2023-05-15T00:05:01.560Z,11.6
2023-05-15T00:06:02.095Z,11.6
2023-05-15T00:07:01.710Z,11.5
2023-05-15T00:08:01.281Z,11.4
2023-05-15T00:09:01.826Z,11.3
2023-05-15T00:10:01.411Z,11.3
2023-05-15T00:11:02.338Z,11.3
2023-05-15T00:12:01.657Z,11.3
2023-05-15T00:13:01.246Z,11.3
2023-05-15T00:14:01.821Z,11.3
2023-05-15T00:15:01.426Z,11.2
2023-05-15T00:16:02.048Z,11.2
2023-05-15T00:17:01.660Z,11.2
2023-05-15T00:18:01.280Z,11.3
2023-05-15T00:19:01.870Z,11.4
2023-05-15T00:20:01.501Z,11.3
2023-05-15T00:21:02.165Z,11.3
2023-05-15T00:22:01.747Z,11.3
2023-05-15T00:23:01.304Z,11.3
2023-05-15T00:24:01.913Z,11.3
2023-05-15T00:25:01.506Z,11.3
2023-05-15T00:26:02.092Z,11.2
2023-05-15T00:27:01.724Z,11.2
2023-05-15T00:28:01.283Z,11.2
2023-05-15T00:29:01.869Z,11.2
2023-05-15T00:30:01.470Z,11.1
2023-05-15T00:31:02.051Z,11.1
2023-05-15T00:32:01.644Z,11.2
2023-05-15T00:33:01.258Z,11.2
2023-05-15T00:34:01.829Z,11
2023-05-15T00:35:01.446Z,11.1
2023-05-15T00:36:02.025Z,11
2023-05-15T00:37:01.640Z,11
2023-05-15T00:38:02.199Z,11
2023-05-15T00:39:01.821Z,11
2023-05-15T00:40:01.483Z,11
2023-05-15T00:41:02.011Z,11
2023-05-15T00:42:02.172Z,11
2023-05-15T00:43:01.935Z,11
2023-05-15T00:44:01.540Z,10.9
2023-05-15T00:45:02.147Z,10.8
2023-05-15T00:46:01.755Z,10.8
2023-05-15T00:47:01.347Z,10.8
2023-05-15T00:48:01.970Z,10.9
2023-05-15T00:49:01.556Z,10.9
2023-05-15T00:50:02.143Z,10.8
2023-05-15T00:51:01.772Z,10.8
2023-05-15T00:52:01.299Z,10.8
2023-05-15T00:53:01.922Z,10.9
2023-05-15T00:54:01.532Z,10.9
2023-05-15T00:55:02.093Z,11
2023-05-15T00:56:01.709Z,11
2023-05-15T00:57:01.273Z,11
2023-05-15T00:58:01.861Z,11
2023-05-15T00:59:01.459Z,11
2023-05-15T01:00:02.024Z,10.9
2023-05-15T01:01:01.691Z,10.8
2023-05-15T01:02:02.219Z,10.8
2023-05-15T01:03:02.131Z,10.8
2023-05-15T01:04:01.435Z,10.8
2023-05-15T01:05:02.018Z,10.8
2023-05-15T01:06:01.613Z,10.8
2023-05-15T01:07:02.206Z,10.8
2023-05-15T01:08:01.831Z,10.8
2023-05-15T01:09:01.450Z,10.8
2023-05-15T01:10:02.011Z,10.8
2023-05-15T01:11:01.620Z,10.8
2023-05-15T01:12:02.191Z,10.8
2023-05-15T01:13:01.802Z,10.8
2023-05-15T01:14:01.385Z,10.7
2023-05-15T01:15:01.968Z,10.8
2023-05-15T01:16:01.567Z,10.8
2023-05-15T01:17:02.140Z,10.7
2023-05-15T01:18:01.781Z,10.7
2023-05-15T01:19:01.364Z,10.8
2023-05-15T01:20:01.914Z,10.9
2023-05-15T01:21:01.742Z,10.9
2023-05-15T01:22:02.115Z,11
2023-05-15T01:23:01.703Z,11
2023-05-15T01:24:01.282Z,11.1
2023-05-15T01:25:01.889Z,11.1
2023-05-15T01:26:01.501Z,11
2023-05-15T01:27:02.060Z,11
2023-05-15T01:28:01.664Z,10.9
2023-05-15T01:29:02.256Z,10.7
2023-05-15T01:30:01.847Z,10.6
2023-05-15T01:31:01.456Z,10.7
2023-05-15T01:32:02.069Z,10.7
2023-05-15T01:33:01.739Z,10.7
2023-05-15T01:34:01.307Z,10.7
2023-05-15T01:35:01.895Z,10.7
2023-05-15T01:36:01.478Z,10.7
2023-05-15T01:37:02.066Z,10.7
2023-05-15T01:38:01.661Z,10.7
2023-05-15T01:39:01.241Z,10.8
2023-05-15T01:40:01.834Z,10.8
2023-05-15T01:41:01.464Z,10.8
2023-05-15T01:42:02.002Z,10.8
2023-05-15T01:43:01.594Z,10.8
2023-05-15T01:44:02.158Z,10.8
2023-05-15T01:45:01.763Z,10.9
2023-05-15T01:46:01.375Z,10.9
2023-05-15T01:47:01.944Z,10.9
2023-05-15T01:48:01.538Z,10.8
2023-05-15T01:49:01.712Z,10.9
2023-05-15T01:50:01.350Z,10.8
2023-05-15T01:51:00.938Z,10.9
2023-05-15T01:52:01.528Z,10.8
2023-05-15T01:53:01.132Z,10.8
2023-05-15T01:54:00.707Z,10.8
2023-05-15T01:55:01.324Z,10.8
2023-05-15T01:56:00.925Z,10.8
2023-05-15T01:57:01.539Z,10.8
2023-05-15T01:58:01.125Z,10.8
2023-05-15T01:59:00.707Z,10.7
2023-05-15T02:00:01.328Z,10.7
2023-05-15T02:01:00.934Z,10.7
2023-05-15T02:02:01.561Z,10.6
2023-05-15T02:03:01.209Z,10.6
2023-05-15T02:04:00.807Z,10.6
2023-05-15T02:05:01.331Z,10.6
2023-05-15T02:06:00.911Z,10.6
2023-05-15T02:07:01.503Z,10.5
2023-05-15T02:08:01.110Z,10.6
2023-05-15T02:09:00.677Z,10.6
2023-05-15T02:10:01.269Z,10.6
2023-05-15T02:11:00.857Z,10.7
2023-05-15T02:12:01.443Z,10.7
2023-05-15T02:13:01.062Z,10.7
2023-05-15T02:14:01.633Z,10.7
2023-05-15T02:15:01.227Z,10.6
2023-05-15T02:16:00.849Z,10.5
2023-05-15T02:17:01.393Z,10.5
2023-05-15T02:18:00.998Z,10.5
2023-05-15T02:19:01.599Z,10.6
2023-05-15T02:20:01.210Z,10.7
2023-05-15T02:21:00.819Z,10.7
2023-05-15T02:22:01.383Z,10.6
2023-05-15T02:23:00.996Z,10.6
2023-05-15T02:24:01.585Z,10.6
2023-05-15T02:25:01.177Z,10.6
2023-05-15T02:26:00.757Z,10.6
2023-05-15T02:27:01.346Z,10.6
2023-05-15T02:28:00.946Z,10.5
2023-05-15T02:29:01.575Z,10.5
2023-05-15T02:30:01.166Z,10.4
2023-05-15T02:31:00.750Z,10.4
2023-05-15T02:32:01.380Z,10.4
2023-05-15T02:33:01.022Z,10.3
2023-05-15T02:34:01.577Z,10.4
2023-05-15T02:35:01.169Z,10.3
2023-05-15T02:36:00.746Z,10.4
2023-05-15T02:37:01.316Z,10.4
2023-05-15T02:38:00.900Z,10.3
2023-05-15T02:39:01.500Z,10.3
2023-05-15T02:40:01.105Z,10.4
2023-05-15T02:41:00.708Z,10.4
2023-05-15T02:42:01.268Z,10.4
2023-05-15T02:43:00.886Z,10.4
2023-05-15T02:44:01.457Z,10.4
2023-05-15T02:45:01.067Z,10.4
2023-05-15T02:46:01.716Z,10.3
2023-05-15T02:47:01.312Z,10.3
2023-05-15T02:48:00.899Z,10.3
2023-05-15T02:49:01.493Z,10.3
2023-05-15T02:50:01.078Z,10.3
2023-05-15T02:51:01.666Z,10.3
2023-05-15T02:52:01.254Z,10.4
2023-05-15T02:53:00.858Z,10.4
2023-05-15T02:54:01.444Z,10.4
2023-05-15T02:55:01.057Z,10.4
2023-05-15T02:56:01.640Z,10.4
2023-05-15T02:57:01.247Z,10.3
2023-05-15T02:58:00.836Z,10.3
2023-05-15T02:59:01.422Z,10.1
2023-05-15T03:00:01.016Z,10
2023-05-15T03:01:01.744Z,10
2023-05-15T03:02:01.381Z,10.1
2023-05-15T03:03:00.889Z,10.2
2023-05-15T03:04:01.485Z,10.1
2023-05-15T03:05:01.082Z,10.2
2023-05-15T03:06:01.675Z,10.2
2023-05-15T03:07:01.292Z,10.3
2023-05-15T03:08:00.900Z,10.4
2023-05-15T03:09:01.484Z,10.3
2023-05-15T03:10:01.067Z,10.3
2023-05-15T03:11:01.658Z,10.2
2023-05-15T03:12:01.254Z,10.1
2023-05-15T03:13:00.902Z,10.1
2023-05-15T03:14:01.428Z,10.3
2023-05-15T03:15:01.022Z,10.4
2023-05-15T03:16:01.613Z,10.5
2023-05-15T03:17:01.255Z,10.6
2023-05-15T03:18:00.954Z,10.7
2023-05-15T03:19:01.468Z,10.7
2023-05-15T03:20:01.101Z,10.8
2023-05-15T03:21:00.683Z,10.8
2023-05-15T03:22:01.272Z,10.9
2023-05-15T03:23:00.857Z,11
2023-05-15T03:24:01.474Z,11
2023-05-15T03:25:01.074Z,11.1
2023-05-15T03:26:01.658Z,11.2
2023-05-15T03:27:01.256Z,11.2
2023-05-15T03:28:00.849Z,11.2
2023-05-15T03:29:01.455Z,11.3
2023-05-15T03:30:01.047Z,11.3
2023-05-15T03:31:01.653Z,11.3
2023-05-15T03:32:01.252Z,11.4
2023-05-15T03:33:00.909Z,11.3
2023-05-15T03:34:01.441Z,11.4
2023-05-15T03:35:01.050Z,11.4
2023-05-15T03:36:01.641Z,11.4
2023-05-15T03:37:01.221Z,11.4
2023-05-15T03:38:00.808Z,11.5
2023-05-15T03:39:01.404Z,11.5
2023-05-15T03:40:01.000Z,11.5
2023-05-15T03:41:01.583Z,11.6
2023-05-15T03:42:01.191Z,11.7
2023-05-15T03:43:00.764Z,11.6
2023-05-15T03:44:01.358Z,11.5
2023-05-15T03:45:00.943Z,11.5
2023-05-15T03:46:01.599Z,11.6
2023-05-15T03:47:01.230Z,11.7
2023-05-15T03:48:00.781Z,11.7
2023-05-15T03:49:01.380Z,11.7
2023-05-15T03:50:01.018Z,11.7
2023-05-15T03:51:01.578Z,11.7
2023-05-15T03:52:01.173Z,11.8
2023-05-15T03:53:00.748Z,11.8
2023-05-15T03:54:01.319Z,11.8
2023-05-15T03:55:00.914Z,11.8
2023-05-15T03:56:01.521Z,11.9
2023-05-15T03:57:01.107Z,11.9
2023-05-15T03:58:00.689Z,11.9
2023-05-15T03:59:01.264Z,11.9
2023-05-15T04:00:00.859Z,12
2023-05-15T04:01:01.471Z,11.9
2023-05-15T04:02:04.020Z,12
2023-05-15T04:03:01.681Z,12.1
2023-05-15T04:04:01.361Z,12.1
2023-05-15T04:05:01.052Z,12.1
2023-05-15T04:06:01.506Z,12.1
2023-05-15T04:07:01.094Z,12.2
2023-05-15T04:08:01.677Z,12.2
2023-05-15T04:09:01.259Z,12.3
2023-05-15T04:10:00.847Z,12.3
2023-05-15T04:11:01.446Z,12.3
2023-05-15T04:12:01.033Z,12.3
2023-05-15T04:13:01.610Z,12.3
2023-05-15T04:14:01.209Z,12.3
2023-05-15T04:15:00.799Z,12.3
2023-05-15T04:16:01.433Z,12.3
2023-05-15T04:17:01.031Z,12.3
2023-05-15T04:18:01.660Z,12.4
2023-05-15T04:19:01.295Z,12.3
2023-05-15T04:20:00.823Z,12.4
2023-05-15T04:21:01.473Z,12.4
2023-05-15T04:22:01.060Z,12.4
2023-05-15T04:23:01.647Z,12.4
2023-05-15T04:24:01.237Z,12.4
2023-05-15T04:25:00.828Z,12.4
2023-05-15T04:26:01.425Z,12.5
2023-05-15T04:27:01.062Z,12.4
2023-05-15T04:28:01.608Z,12.5
2023-05-15T04:29:04.279Z,12.5
2023-05-15T04:30:00.752Z,12.5
2023-05-15T04:31:01.355Z,12.5
2023-05-15T04:32:00.980Z,12.4
2023-05-15T04:33:01.541Z,12.5
2023-05-15T04:34:01.140Z,12.5
2023-05-15T04:35:00.734Z,12.6
2023-05-15T04:36:01.296Z,12.6
2023-05-15T04:37:00.904Z,12.6
2023-05-15T04:38:01.498Z,12.5
2023-05-15T04:39:01.085Z,12.6
2023-05-15T04:40:01.663Z,12.5
2023-05-15T04:41:01.278Z,12.6
2023-05-15T04:42:00.885Z,12.6
2023-05-15T04:43:01.483Z,12.6
2023-05-15T04:44:01.132Z,12.6
2023-05-15T04:45:00.691Z,12.6
2023-05-15T04:46:01.332Z,12.6
2023-05-15T04:47:00.923Z,12.6
2023-05-15T04:48:01.545Z,12.6
2023-05-15T04:49:01.161Z,12.6
2023-05-15T04:50:00.741Z,12.7
2023-05-15T04:51:01.362Z,12.7
2023-05-15T04:52:00.980Z,12.7
2023-05-15T04:53:01.587Z,12.8
2023-05-15T04:54:01.177Z,12.8
2023-05-15T04:55:00.763Z,12.8
2023-05-15T04:56:01.378Z,12.8
2023-05-15T04:57:00.978Z,12.7
2023-05-15T04:58:01.575Z,12.7
2023-05-15T04:59:01.168Z,12.7
2023-05-15T05:00:00.759Z,12.7
2023-05-15T05:01:03.623Z,12.7
2023-05-15T05:02:00.882Z,12.6
2023-05-15T05:03:01.598Z,12.6
2023-05-15T05:04:01.371Z,12.5
2023-05-15T05:05:00.781Z,12.7
2023-05-15T05:06:01.414Z,12.7
2023-05-15T05:07:01.004Z,12.6
2023-05-15T05:08:01.606Z,12.6
2023-05-15T05:09:01.221Z,12.6
2023-05-15T05:10:00.778Z,12.7
2023-05-15T05:11:01.429Z,12.7
2023-05-15T05:12:01.019Z,12.7
2023-05-15T05:13:01.620Z,12.8
2023-05-15T05:14:01.209Z,12.9
2023-05-15T05:15:00.793Z,12.8
2023-05-15T05:16:01.407Z,12.9
2023-05-15T05:17:01.028Z,12.9
2023-05-15T05:18:01.648Z,12.9
2023-05-15T05:19:01.298Z,12.9
2023-05-15T05:20:00.869Z,13
2023-05-15T05:21:01.427Z,13
2023-05-15T05:22:01.009Z,12.9
2023-05-15T05:23:01.594Z,12.8
2023-05-15T05:24:01.218Z,12.6
2023-05-15T05:25:00.825Z,12.6
2023-05-15T05:26:01.638Z,12.4
2023-05-15T05:27:00.837Z,12.3
2023-05-15T05:28:01.426Z,12.3
2023-05-15T05:29:01.024Z,12.3
2023-05-15T05:30:01.627Z,12.3
2023-05-15T05:31:01.261Z,12.4
2023-05-15T05:32:00.852Z,12.4
2023-05-15T05:33:01.436Z,12.4
2023-05-15T05:34:01.057Z,12.6
2023-05-15T05:35:01.649Z,12.6
2023-05-15T05:36:01.243Z,12.6
2023-05-15T05:37:00.829Z,12.5
2023-05-15T05:38:01.413Z,12.5
2023-05-15T05:39:01.025Z,12.6
2023-05-15T05:40:01.590Z,12.6
2023-05-15T05:41:01.222Z,12.6
2023-05-15T05:42:00.771Z,12.7
2023-05-15T05:43:01.377Z,12.6
2023-05-15T05:44:00.999Z,12.4
2023-05-15T05:45:01.564Z,12.5
2023-05-15T05:46:01.153Z,12.5
2023-05-15T05:47:00.757Z,12.6
2023-05-15T05:48:01.402Z,12.7
2023-05-15T05:49:00.983Z,12.5
2023-05-15T05:50:01.583Z,12.5
2023-05-15T05:51:01.235Z,12.5
2023-05-15T05:52:00.760Z,12.6
2023-05-15T05:53:01.344Z,12.7
2023-05-15T05:54:00.960Z,12.6
2023-05-15T05:55:01.514Z,12.6
2023-05-15T05:56:01.117Z,12.8
2023-05-15T05:57:01.772Z,12.7
2023-05-15T05:58:02.217Z,12.6
2023-05-15T05:59:00.922Z,12.6
2023-05-15T06:00:01.504Z,12.6
2023-05-15T06:01:01.088Z,12.5
2023-05-15T06:02:01.733Z,12.5
2023-05-15T06:03:01.410Z,12.4
2023-05-15T06:04:00.973Z,12.4
2023-05-15T06:05:01.513Z,12.2
2023-05-15T06:06:01.105Z,12.2
2023-05-15T06:07:01.696Z,12.1
2023-05-15T06:08:01.324Z,12.2
2023-05-15T06:09:00.916Z,12.1
2023-05-15T06:10:01.531Z,12.1
2023-05-15T06:11:01.137Z,12.1
2023-05-15T06:12:00.761Z,12.1
2023-05-15T06:13:01.335Z,12.1
2023-05-15T06:14:00.925Z,12.1
2023-05-15T06:15:01.535Z,12.1
2023-05-15T06:16:01.168Z,12.1
2023-05-15T06:17:00.762Z,12
2023-05-15T06:18:01.323Z,12.1
2023-05-15T06:19:01.014Z,12.1
2023-05-15T06:20:01.525Z,12.3
2023-05-15T06:21:01.137Z,12.3
2023-05-15T06:22:01.723Z,12.3
2023-05-15T06:23:01.335Z,12.2
2023-05-15T06:24:00.921Z,12.2
2023-05-15T06:25:01.513Z,12.2
2023-05-15T06:26:01.126Z,12.2
2023-05-15T06:27:01.692Z,12.3
2023-05-15T06:28:01.313Z,12.3
2023-05-15T06:29:01.418Z,12.3
2023-05-15T06:30:01.019Z,12.4
2023-05-15T06:31:01.644Z,12.4
2023-05-15T06:32:01.265Z,12.4
2023-05-15T06:33:01.057Z,12.4
2023-05-15T06:34:01.704Z,12.4
2023-05-15T06:35:01.299Z,12.6
2023-05-15T06:36:00.912Z,12.6
2023-05-15T06:37:01.495Z,12.6
2023-05-15T06:38:01.104Z,12.5
2023-05-15T06:39:01.677Z,12.4
2023-05-15T06:40:01.357Z,12.5
2023-05-15T06:41:00.938Z,12.5
2023-05-15T06:42:01.652Z,12.4
2023-05-15T06:43:01.172Z,12.5
2023-05-15T06:44:00.741Z,12.5
2023-05-15T06:45:01.391Z,12.7
2023-05-15T06:46:01.075Z,12.7
2023-05-15T06:47:01.691Z,12.8
2023-05-15T06:48:01.950Z,12.9
2023-05-15T06:49:01.682Z,12.9
2023-05-15T06:50:01.275Z,12.9
2023-05-15T06:51:00.862Z,12.8
2023-05-15T06:52:01.512Z,13
2023-05-15T06:53:01.101Z,13.1
2023-05-15T06:54:01.718Z,13.1
2023-05-15T06:55:01.305Z,13.1
2023-05-15T06:56:00.900Z,13.2
2023-05-15T06:57:01.475Z,13.2
2023-05-15T06:58:01.070Z,13.2
2023-05-15T06:59:01.678Z,13.2
2023-05-15T07:00:01.280Z,13.3
2023-05-15T07:01:01.368Z,13.4
2023-05-15T07:02:01.085Z,13.6
2023-05-15T07:03:01.717Z,13.5
2023-05-15T07:04:01.385Z,13.6
2023-05-15T07:05:00.961Z,13.7
2023-05-15T07:06:01.521Z,13.8
2023-05-15T07:07:01.111Z,13.9
2023-05-15T07:08:01.695Z,13.8
2023-05-15T07:09:01.298Z,13.8
2023-05-15T07:10:00.897Z,14.1
2023-05-15T07:11:01.478Z,13.9
2023-05-15T07:12:01.084Z,13.9
2023-05-15T07:13:01.654Z,13.9
2023-05-15T07:14:01.240Z,13.6
2023-05-15T07:15:00.834Z,13.6
2023-05-15T07:16:01.414Z,13.6
2023-05-15T07:17:01.085Z,13.6
2023-05-15T07:18:01.704Z,13.4
2023-05-15T07:19:01.301Z,13.5
2023-05-15T07:20:00.839Z,13.5
2023-05-15T07:21:01.411Z,13.3
2023-05-15T07:22:03.172Z,13.3
2023-05-15T07:23:01.575Z,13.4
2023-05-15T07:24:01.182Z,13.4
2023-05-15T07:25:00.759Z,13.5
2023-05-15T07:26:01.348Z,13.8
2023-05-15T07:27:00.959Z,13.9
2023-05-15T07:28:01.522Z,13.8
2023-05-15T07:29:01.126Z,13.8
2023-05-15T07:30:01.695Z,13.9
2023-05-15T07:31:02.946Z,13.8
2023-05-15T07:32:01.058Z,13.8
2023-05-15T07:33:01.562Z,13.7
2023-05-15T07:34:01.164Z,13.4
2023-05-15T07:35:00.743Z,13.4
2023-05-15T07:36:01.330Z,13.3
2023-05-15T07:37:00.935Z,13.4
2023-05-15T07:38:01.549Z,13.3
2023-05-15T07:39:01.161Z,13.3
2023-05-15T07:40:00.804Z,13.4
2023-05-15T07:41:01.316Z,13.5
2023-05-15T07:42:00.945Z,13.5
2023-05-15T07:43:01.500Z,13.4
2023-05-15T07:44:01.105Z,13.4
2023-05-15T07:45:01.736Z,13.4
2023-05-15T07:46:01.377Z,13.5
2023-05-15T07:47:00.960Z,13.6
2023-05-15T07:48:01.537Z,13.7
2023-05-15T07:49:01.192Z,13.7
2023-05-15T07:50:00.759Z,13.7
2023-05-15T07:51:01.321Z,13.7
2023-05-15T07:52:00.916Z,13.6
2023-05-15T07:53:01.540Z,13.6
2023-05-15T07:54:01.132Z,13.6
2023-05-15T07:55:01.773Z,13.4
2023-05-15T07:56:01.397Z,13.4
2023-05-15T07:57:00.964Z,13.4
2023-05-15T07:58:01.545Z,13.6
2023-05-15T07:59:01.193Z,13.7
2023-05-15T08:00:00.767Z,13.8
2023-05-15T08:01:01.385Z,13.8
2023-05-15T08:02:01.008Z,14
2023-05-15T08:03:01.754Z,14.3
2023-05-15T08:04:01.289Z,14.3
2023-05-15T08:05:01.007Z,14.4
2023-05-15T08:06:01.432Z,14.5
2023-05-15T08:07:01.023Z,14.5
2023-05-15T08:08:01.650Z,14.8
2023-05-15T08:09:01.259Z,14.8
2023-05-15T08:10:00.841Z,14.8
2023-05-15T08:11:01.446Z,14.5
2023-05-15T08:12:01.038Z,14.6
2023-05-15T08:13:01.622Z,14.8
2023-05-15T08:14:01.245Z,15
2023-05-15T08:15:00.806Z,15
2023-05-15T08:16:01.442Z,15
2023-05-15T08:17:01.047Z,15
2023-05-15T08:18:01.739Z,14.9
2023-05-15T08:19:01.425Z,14.8
2023-05-15T08:20:00.869Z,14.9
2023-05-15T08:21:02.917Z,14.9
2023-05-15T08:22:01.012Z,14.7
2023-05-15T08:23:01.632Z,14.8
2023-05-15T08:24:01.225Z,14.8
2023-05-15T08:25:00.814Z,14.9
2023-05-15T08:26:01.396Z,15.4
2023-05-15T08:27:00.986Z,15.5
2023-05-15T08:28:01.592Z,15.6
2023-05-15T08:29:01.205Z,15.6
2023-05-15T08:30:00.751Z,15.5
2023-05-15T08:31:01.373Z,15.5
2023-05-15T08:32:00.978Z,15.6
2023-05-15T08:33:01.649Z,15.5
2023-05-15T08:34:01.229Z,15.6
2023-05-15T08:35:00.830Z,15.4
2023-05-15T08:36:01.422Z,15.3
2023-05-15T08:37:01.077Z,15.6
2023-05-15T08:38:01.651Z,15.6
2023-05-15T08:39:01.293Z,15.5
2023-05-15T08:40:00.836Z,15.6
2023-05-15T08:41:01.422Z,15.8
2023-05-15T08:42:01.005Z,16
2023-05-15T08:43:01.594Z,16
2023-05-15T08:44:01.220Z,15.8
2023-05-15T08:45:00.787Z,15.6
2023-05-15T08:46:01.359Z,15.7
2023-05-15T08:47:00.977Z,16.1
2023-05-15T08:48:01.612Z,16.2
2023-05-15T08:49:01.328Z,16.2
2023-05-15T08:50:00.944Z,16.2
2023-05-15T08:51:01.383Z,16.2
2023-05-15T08:52:00.985Z,16.3
2023-05-15T08:53:01.646Z,16.3
2023-05-15T08:54:01.232Z,16.3
2023-05-15T08:55:00.828Z,16.3
2023-05-15T08:56:01.391Z,16.2
2023-05-15T08:57:00.977Z,16.1
2023-05-15T08:58:01.550Z,16.1
2023-05-15T08:59:01.145Z,16.2
2023-05-15T09:00:01.738Z,16
2023-05-15T09:01:01.344Z,15.9
2023-05-15T09:02:00.981Z,16.2
2023-05-15T09:03:01.590Z,16.4
2023-05-15T09:04:01.240Z,16.6
2023-05-15T09:05:00.789Z,16.4
2023-05-15T09:06:01.377Z,16.2
2023-05-15T09:07:00.978Z,16.2
2023-05-15T09:08:01.561Z,16.6
2023-05-15T09:09:01.177Z,16.8
2023-05-15T09:10:01.736Z,16.9
2023-05-15T09:11:01.348Z,16.8
2023-05-15T09:12:00.956Z,16.8
2023-05-15T09:13:01.522Z,16.9
2023-05-15T09:14:01.108Z,16.7
2023-05-15T09:15:01.697Z,16.8
2023-05-15T09:16:01.305Z,16.8
2023-05-15T09:17:00.910Z,16.7
2023-05-15T09:18:01.515Z,16.7
2023-05-15T09:19:01.247Z,16.3
2023-05-15T09:20:01.714Z,16.2
2023-05-15T09:21:01.319Z,16.2
2023-05-15T09:22:00.904Z,16.3
2023-05-15T09:23:01.489Z,16.4
2023-05-15T09:24:01.084Z,16.4
2023-05-15T09:25:01.685Z,16.4
2023-05-15T09:26:01.297Z,16.4
2023-05-15T09:27:00.884Z,16.3
2023-05-15T09:28:01.450Z,16.3
2023-05-15T09:29:01.055Z,16.4
2023-05-15T09:30:01.634Z,16.4
2023-05-15T09:31:01.244Z,16.3
2023-05-15T09:32:00.853Z,16.3
2023-05-15T09:33:01.472Z,16.1
2023-05-15T09:34:01.061Z,16
2023-05-15T09:35:01.635Z,16.1
2023-05-15T09:36:01.241Z,16
2023-05-15T09:37:00.844Z,16.1
2023-05-15T09:38:01.416Z,16.3
2023-05-15T09:39:01.035Z,16.4
2023-05-15T09:40:01.626Z,16.5
2023-05-15T09:41:01.237Z,16.5
2023-05-15T09:42:00.816Z,16.7
2023-05-15T09:43:01.388Z,16.8
2023-05-15T09:44:00.980Z,16.9
2023-05-15T09:45:01.585Z,16.8
2023-05-15T09:46:01.290Z,16.8
2023-05-15T09:47:00.822Z,16.9
2023-05-15T09:48:01.521Z,17
2023-05-15T09:49:01.033Z,17.1
2023-05-15T09:50:01.606Z,17.2
2023-05-15T09:51:01.222Z,17.2
2023-05-15T09:52:00.813Z,17.1
2023-05-15T09:53:01.404Z,17.2
2023-05-15T09:54:01.107Z,17.2
2023-05-15T09:55:01.670Z,17.1
2023-05-15T09:56:01.267Z,17.1
2023-05-15T09:57:00.881Z,17.3
2023-05-15T09:58:01.456Z,17.3
2023-05-15T09:59:01.054Z,17.5
2023-05-15T10:00:01.628Z,17.4
2023-05-15T10:01:01.219Z,17.4
2023-05-15T10:02:00.824Z,17.4
2023-05-15T10:03:01.435Z,17.4
2023-05-15T10:04:01.036Z,17.3
2023-05-15T10:05:01.680Z,17.4
2023-05-15T10:06:01.325Z,17.4
2023-05-15T10:07:00.848Z,17.4
2023-05-15T10:08:01.452Z,17.7
2023-05-15T10:09:01.050Z,18
2023-05-15T10:10:01.644Z,18.3
2023-05-15T10:11:01.231Z,18.3
2023-05-15T10:12:00.814Z,18.1
2023-05-15T10:13:01.433Z,17.9
2023-05-15T10:14:01.027Z,18
2023-05-15T10:15:01.631Z,18
2023-05-15T10:16:01.264Z,18
2023-05-15T10:17:00.803Z,17.9
2023-05-15T10:18:01.417Z,17.9
2023-05-15T10:19:02.267Z,17.8
2023-05-15T10:20:01.594Z,17.7
2023-05-15T10:21:01.299Z,17.8
2023-05-15T10:22:00.784Z,17.8
2023-05-15T10:23:01.366Z,17.7
2023-05-15T10:24:00.975Z,17.8
2023-05-15T10:25:01.539Z,18
2023-05-15T10:26:01.122Z,18
2023-05-15T10:27:01.706Z,17.9
2023-05-15T10:28:01.306Z,17.9
2023-05-15T10:29:00.962Z,17.8
2023-05-15T10:30:01.498Z,17.8
2023-05-15T10:31:01.104Z,18
2023-05-15T10:32:01.683Z,18
2023-05-15T10:33:01.296Z,17.8
2023-05-15T10:34:00.875Z,17.5
2023-05-15T10:35:01.463Z,17.7
2023-05-15T10:36:01.052Z,17.9
2023-05-15T10:37:01.640Z,18
2023-05-15T10:38:01.228Z,18.2
2023-05-15T10:39:00.811Z,18.2
2023-05-15T10:40:01.422Z,18.2
2023-05-15T10:41:15.560Z,18.1
2023-05-15T10:42:01.556Z,18.2
2023-05-15T10:43:01.152Z,18.2
2023-05-15T10:44:01.778Z,18.3
2023-05-15T10:45:01.417Z,18.5
2023-05-15T10:46:00.968Z,18.6
2023-05-15T10:47:01.563Z,18.3
2023-05-15T10:48:01.214Z,18.3
2023-05-15T10:49:01.850Z,18.5
2023-05-15T10:50:01.543Z,18.4
2023-05-15T10:51:01.012Z,18.5
2023-05-15T10:52:01.616Z,18.5
2023-05-15T10:53:01.259Z,18.6
2023-05-15T10:54:00.850Z,18.4
2023-05-15T10:55:01.510Z,18.4
2023-05-15T10:56:01.130Z,18.4
2023-05-15T10:57:01.696Z,18.4
2023-05-15T10:58:01.306Z,18.4
2023-05-15T10:59:00.871Z,18.4
2023-05-15T11:00:01.454Z,18.5
2023-05-15T11:01:01.096Z,18.5
2023-05-15T11:02:01.638Z,18.6
2023-05-15T11:03:01.389Z,18.6
2023-05-15T11:04:00.830Z,18.6
2023-05-15T11:05:01.394Z,18.6
2023-05-15T11:06:00.986Z,18.5
2023-05-15T11:07:01.592Z,18.4
2023-05-15T11:08:01.202Z,18.5
2023-05-15T11:09:01.786Z,18.5
2023-05-15T11:10:01.380Z,18.7
2023-05-15T11:11:01.014Z,19
2023-05-15T11:12:01.551Z,19
2023-05-15T11:13:01.179Z,18.7
2023-05-15T11:14:01.733Z,18.7
2023-05-15T11:15:01.338Z,18.6
2023-05-15T11:16:00.937Z,18.7
2023-05-15T11:17:01.581Z,18.7
2023-05-15T11:18:01.221Z,18.8
2023-05-15T11:19:01.793Z,18.8
2023-05-15T11:20:01.511Z,18.8
2023-05-15T11:21:00.991Z,18.8
2023-05-15T11:22:01.577Z,18.9
2023-05-15T11:23:01.181Z,18.9
2023-05-15T11:24:01.754Z,19.1
2023-05-15T11:25:01.348Z,19
2023-05-15T11:26:00.941Z,19.2
2023-05-15T11:27:01.525Z,19.3
2023-05-15T11:28:01.139Z,19.1
2023-05-15T11:29:01.706Z,18.9
2023-05-15T11:30:01.309Z,19
2023-05-15T11:31:00.908Z,19
2023-05-15T11:32:01.469Z,18.9
2023-05-15T11:33:01.223Z,18.9
2023-05-15T11:34:01.643Z,19
2023-05-15T11:35:01.251Z,18.9
2023-05-15T11:36:00.837Z,19
2023-05-15T11:37:01.419Z,18.9
2023-05-15T11:38:01.026Z,18.9
2023-05-15T11:39:01.616Z,19
2023-05-15T11:40:01.203Z,18.9
2023-05-15T11:41:01.797Z,19
2023-05-15T11:42:01.411Z,19.3
2023-05-15T11:43:01.010Z,19.5
2023-05-15T11:44:01.607Z,19.5
2023-05-15T11:45:01.192Z,19.5
2023-05-15T11:46:01.935Z,19.5
2023-05-15T11:47:01.734Z,19.5
2023-05-15T11:48:01.060Z,19.5
2023-05-15T11:49:01.645Z,19.5
2023-05-15T11:50:01.238Z,19.6
2023-05-15T11:51:00.844Z,19.4
2023-05-15T11:52:01.398Z,19.1
2023-05-15T11:53:00.983Z,19.1
2023-05-15T11:54:01.571Z,19
2023-05-15T11:55:01.203Z,19
2023-05-15T11:56:01.766Z,19.1
2023-05-15T11:57:01.358Z,19.2
2023-05-15T11:58:00.951Z,19.2
2023-05-15T11:59:01.529Z,19.4
2023-05-15T12:00:01.115Z,19.6
2023-05-15T12:01:01.718Z,19.7
2023-05-15T12:02:01.304Z,19.7
2023-05-15T12:03:00.976Z,19.6
2023-05-15T12:04:01.634Z,19.7
2023-05-15T12:05:01.269Z,19.6
2023-05-15T12:06:01.788Z,19.5
2023-05-15T12:07:02.991Z,19.5
2023-05-15T12:08:01.732Z,19.5
2023-05-15T12:09:01.321Z,19.7
2023-05-15T12:10:00.913Z,19.6
2023-05-15T12:11:01.523Z,19.9
2023-05-15T12:12:01.132Z,20.2
2023-05-15T12:13:01.705Z,20.4
2023-05-15T12:14:01.312Z,20.2
2023-05-15T12:15:00.907Z,19.8
2023-05-15T12:16:01.557Z,19.8
2023-05-15T12:17:01.230Z,19.7
2023-05-15T12:18:01.744Z,19.8
2023-05-15T12:19:01.353Z,19.8
2023-05-15T12:20:00.908Z,19.8
2023-05-15T12:21:01.554Z,19.7
2023-05-15T12:22:01.154Z,19.9
2023-05-15T12:23:01.743Z,20.1
2023-05-15T12:25:00.880Z,20.5
2023-05-15T12:26:01.490Z,20.3
2023-05-15T12:27:01.075Z,20.1
2023-05-15T12:28:01.669Z,20.2
2023-05-15T12:29:01.253Z,20.3
2023-05-15T12:30:00.839Z,20.2
2023-05-15T12:31:01.429Z,20.3
2023-05-15T12:32:01.022Z,20.4
2023-05-15T12:33:01.645Z,20.6
2023-05-15T12:34:01.258Z,20.7
2023-05-15T12:35:00.839Z,20.5
2023-05-15T12:36:02.041Z,20.5
2023-05-15T12:37:01.731Z,20.5
2023-05-15T12:38:01.340Z,20.8
2023-05-15T12:39:00.926Z,21.1
2023-05-15T12:40:01.512Z,20.7
2023-05-15T12:41:01.115Z,20.5
2023-05-15T12:42:01.691Z,20.5
2023-05-15T12:43:01.295Z,20.4
2023-05-15T12:44:00.867Z,20.3
2023-05-15T12:45:01.448Z,20.2
2023-05-15T12:46:01.044Z,20.2
2023-05-15T12:47:01.625Z,20.3
2023-05-15T12:48:01.268Z,20.3
2023-05-15T12:49:01.782Z,20.6
2023-05-15T12:50:01.372Z,20.5
2023-05-15T12:51:00.978Z,20.5
2023-05-15T12:52:01.562Z,20.8
2023-05-15T12:53:01.202Z,20.8
2023-05-15T12:54:01.734Z,20.7
2023-05-15T12:55:01.328Z,20.8
2023-05-15T12:56:00.952Z,20.9
2023-05-15T12:57:02.202Z,21.1
2023-05-15T12:58:00.874Z,21.1
2023-05-15T12:59:01.476Z,21.2
2023-05-15T13:00:01.065Z,21
2023-05-15T13:01:01.699Z,20.8
2023-05-15T13:02:01.296Z,20.7
2023-05-15T13:03:00.997Z,20.9
2023-05-15T13:04:01.535Z,20.8
2023-05-15T13:05:01.143Z,20.7
2023-05-15T13:06:01.697Z,20.3
2023-05-15T13:07:01.291Z,20.3
2023-05-15T13:08:00.898Z,20.3
2023-05-15T13:09:01.504Z,20.1
2023-05-15T13:10:01.093Z,19.8
2023-05-15T13:11:01.674Z,19.6
2023-05-15T13:12:01.273Z,19.6
2023-05-15T13:13:00.855Z,19.7
2023-05-15T13:14:01.452Z,19.9
2023-05-15T13:15:01.043Z,19.8
2023-05-15T13:16:01.675Z,19.9
2023-05-15T13:17:01.283Z,20.1
2023-05-15T13:18:00.946Z,20.3
2023-05-15T13:19:01.499Z,20.3
2023-05-15T13:20:01.129Z,20.4
2023-05-15T13:21:01.690Z,20.3
2023-05-15T13:22:01.294Z,20.3
2023-05-15T13:23:00.863Z,20.1